Time;durP1;ratioP1;P1;durP2;ratioP2;P2;SDS_P1;SDS_P2;PMS_P1;PMS_P2;Temp;Humidity;BMP_temperature;BMP_pressure;BME280_temperature;BME280_humidity;BME280_pressure;Samples;Min_cycle;Max_cycle;Signal;HPM_P1;HPM_P2
2023/05/23 00:00:54;;;;;;;64.10;30.50;;;;;;;;;;5052955;28;20128;-74
2023/05/23 00:03:21;;;;;;;63.35;29.58;;;;;;;;;;5056143;28;20789;-73
2023/05/23 00:05:48;;;;;;;55.88;28.98;;;;;;;;;;5055182;28;20059;-73
2023/05/23 00:08:15;;;;;;;64.05;31.02;;;;;;;;;;5054467;28;20060;-73
2023/05/23 00:10:41;;;;;;;56.30;28.08;;;;;;;;;;5055078;28;20119;-74
2023/05/23 00:13:11;;;;;;;58.50;28.60;;;;;;;;;;5056441;28;20117;-74
2023/05/23 00:15:37;;;;;;;53.05;27.65;;;;;;;;;;5058284;28;20127;-74
2023/05/23 00:18:03;;;;;;;50.25;26.63;;;;;;;;;;5050761;28;20162;-73
2023/05/23 00:20:29;;;;;;;50.58;27.20;;;;;;;;;;5061393;28;20108;-73
2023/05/23 00:22:57;;;;;;;46.60;25.65;;;;;;;;;;5048931;28;20942;-72
2023/05/23 00:25:32;;;;;;;46.67;26.73;;;;;;;;;;5039212;28;20397;-73
2023/05/23 00:27:58;;;;;;;55.20;26.20;;;;;;;;;;5054568;28;20041;-73
2023/05/23 00:30:24;;;;;;;49.13;25.98;;;;;;;;;;5052494;28;20044;-74
2023/05/23 00:32:53;;;;;;;52.42;25.52;;;;;;;;;;5056754;28;20506;-73
2023/05/23 00:35:19;;;;;;;52.38;26.15;;;;;;;;;;5066701;28;20059;-73
2023/05/23 00:37:45;;;;;;;50.72;26.40;;;;;;;;;;5038317;28;20053;-72
2023/05/23 00:40:11;;;;;;;44.45;26.55;;;;;;;;;;5054751;28;20376;-73
2023/05/23 00:42:37;;;;;;;51.83;26.17;;;;;;;;;;5040263;28;20056;-73
2023/05/23 00:45:05;;;;;;;48.75;24.42;;;;;;;;;;5039371;28;20548;-74
2023/05/23 00:47:31;;;;;;;46.53;24.55;;;;;;;;;;5058750;28;20551;-73
2023/05/23 00:49:57;;;;;;;47.22;23.45;;;;;;;;;;5053361;28;20119;-74
2023/05/23 00:52:23;;;;;;;42.15;21.10;;;;;;;;;;5055246;28;21377;-74
2023/05/23 00:54:49;;;;;;;36.85;21.58;;;;;;;;;;5056042;28;20500;-73
2023/05/23 00:57:15;;;;;;;34.72;21.52;;;;;;;;;;5053801;28;20385;-73
2023/05/23 00:59:42;;;;;;;35.97;21.90;;;;;;;;;;5060038;28;20700;-74
2023/05/23 01:02:09;;;;;;;39.47;21.02;;;;;;;;;;5052069;28;20048;-74
2023/05/23 01:04:35;;;;;;;38.42;21.08;;;;;;;;;;5066090;28;20052;-74
2023/05/23 01:07:02;;;;;;;38.42;21.60;;;;;;;;;;5059196;28;20052;-72
2023/05/23 01:09:28;;;;;;;39.58;23.25;;;;;;;;;;5056849;28;20048;-73
2023/05/23 01:11:57;;;;;;;48.20;24.17;;;;;;;;;;5057162;28;20045;-73
2023/05/23 01:14:34;;;;;;;49.50;24.92;;;;;;;;;;5060315;28;20161;-73
2023/05/23 01:17:10;;;;;;;46.55;25.27;;;;;;;;;;5060032;28;20048;-74
2023/05/23 01:19:56;;;;;;;52.95;26.33;;;;;;;;;;5059573;28;20037;-74
2023/05/23 01:22:26;;;;;;;44.10;27.63;;;;;;;;;;5052951;28;20792;-73
2023/05/23 01:25:05;;;;;;;44.20;26.23;;;;;;;;;;5050905;28;20087;-73
2023/05/23 01:27:40;;;;;;;47.63;27.30;;;;;;;;;;5050912;28;20052;-72
2023/05/23 01:30:08;;;;;;;36.88;24.33;;;;;;;;;;5052899;28;20160;-72
2023/05/23 01:32:34;;;;;;;35.35;24.23;;;;;;;;;;5056577;28;20518;-73
2023/05/23 01:35:00;;;;;;;38.38;22.35;;;;;;;;;;5036425;28;20076;-72
2023/05/23 01:37:28;;;;;;;32.22;21.45;;;;;;;;;;5052881;28;20044;-73
2023/05/23 01:39:54;;;;;;;33.63;20.30;;;;;;;;;;5054801;28;20171;-73
2023/05/23 01:42:20;;;;;;;31.60;19.52;;;;;;;;;;5056429;28;20067;-74
2023/05/23 01:44:46;;;;;;;30.77;19.60;;;;;;;;;;5035933;28;20052;-72
2023/05/23 01:47:13;;;;;;;31.02;17.45;;;;;;;;;;5052378;28;20066;-72
2023/05/23 01:49:40;;;;;;;30.70;17.90;;;;;;;;;;5057057;28;20044;-74
2023/05/23 01:52:12;;;;;;;30.17;17.52;;;;;;;;;;5051196;28;20682;-72
2023/05/23 01:54:41;;;;;;;28.20;16.67;;;;;;;;;;5055376;28;20182;-73
2023/05/23 01:57:07;;;;;;;26.98;15.15;;;;;;;;;;5051990;28;20071;-73
2023/05/23 01:59:33;;;;;;;31.20;16.17;;;;;;;;;;5053587;28;20090;-73
2023/05/23 02:01:59;;;;;;;27.33;14.52;;;;;;;;;;5052416;28;20400;-73
2023/05/23 02:04:27;;;;;;;29.48;14.60;;;;;;;;;;5052456;28;20192;-73
2023/05/23 02:06:53;;;;;;;27.10;15.10;;;;;;;;;;5052990;28;20064;-73
2023/05/23 02:09:19;;;;;;;38.58;15.35;;;;;;;;;;5053886;28;20066;-74
2023/05/23 02:11:45;;;;;;;34.05;15.25;;;;;;;;;;5054371;28;20041;-73
2023/05/23 02:14:11;;;;;;;34.60;14.00;;;;;;;;;;5053297;28;20102;-73
2023/05/23 02:16:38;;;;;;;40.10;14.77;;;;;;;;;;5032389;28;20040;-72
2023/05/23 02:19:04;;;;;;;33.05;15.20;;;;;;;;;;5054475;28;20072;-74
2023/05/23 02:21:30;;;;;;;38.38;14.70;;;;;;;;;;5055658;28;20044;-73
2023/05/23 02:23:56;;;;;;;42.58;15.13;;;;;;;;;;5036903;28;20079;-72
2023/05/23 02:26:22;;;;;;;33.28;14.52;;;;;;;;;;5039314;28;20045;-73
2023/05/23 02:28:48;;;;;;;34.53;14.00;;;;;;;;;;5052353;28;20044;-73
2023/05/23 02:31:16;;;;;;;35.45;14.25;;;;;;;;;;5055019;28;20033;-73
2023/05/23 02:33:42;;;;;;;31.40;14.23;;;;;;;;;;5036934;28;20122;-73
2023/05/23 02:36:08;;;;;;;31.67;13.50;;;;;;;;;;5053212;28;20041;-74
2023/05/23 02:38:34;;;;;;;33.45;14.27;;;;;;;;;;5054195;28;20139;-73
2023/05/23 02:41:00;;;;;;;37.65;14.80;;;;;;;;;;5053164;28;20048;-71
2023/05/23 02:43:26;;;;;;;34.17;13.70;;;;;;;;;;5054050;28;20700;-73
2023/05/23 02:45:52;;;;;;;34.85;13.52;;;;;;;;;;5038670;28;20044;-73
2023/05/23 02:48:18;;;;;;;36.00;13.90;;;;;;;;;;5050292;28;20048;-72
2023/05/23 02:50:44;;;;;;;34.25;13.15;;;;;;;;;;5055407;28;20443;-73
2023/05/23 02:53:10;;;;;;;30.83;12.32;;;;;;;;;;5053546;28;20048;-74
2023/05/23 02:55:37;;;;;;;30.08;11.80;;;;;;;;;;5035922;28;20832;-73
2023/05/23 02:58:04;;;;;;;24.90;10.75;;;;;;;;;;5052657;28;20043;-72
2023/05/23 03:00:31;;;;;;;19.40;9.38;;;;;;;;;;5083988;28;20072;-73
2023/05/23 03:02:57;;;;;;;19.48;8.32;;;;;;;;;;5052676;28;20389;-74
2023/05/23 03:05:23;;;;;;;21.38;9.15;;;;;;;;;;5047904;28;20083;-72
2023/05/23 03:07:50;;;;;;;22.25;9.38;;;;;;;;;;5045080;28;20621;-74
2023/05/23 03:10:16;;;;;;;21.70;8.90;;;;;;;;;;5053102;28;20502;-73
2023/05/23 03:12:42;;;;;;;23.92;9.50;;;;;;;;;;5051600;28;20120;-74
2023/05/23 03:15:09;;;;;;;25.25;10.48;;;;;;;;;;5054514;28;20036;-74
2023/05/23 03:17:35;;;;;;;29.85;10.85;;;;;;;;;;5052103;28;20055;-72
2023/05/23 03:20:02;;;;;;;41.03;12.57;;;;;;;;;;5053091;28;20048;-74
2023/05/23 03:22:28;;;;;;;34.53;12.10;;;;;;;;;;5051939;28;20578;-73
2023/05/23 03:24:54;;;;;;;34.33;12.32;;;;;;;;;;5054317;28;20041;-73
2023/05/23 03:27:20;;;;;;;43.63;14.13;;;;;;;;;;5057229;28;20544;-73
2023/05/23 03:29:47;;;;;;;40.63;12.75;;;;;;;;;;5059000;28;20048;-74
2023/05/23 03:32:13;;;;;;;39.95;13.10;;;;;;;;;;5049279;28;20041;-73
2023/05/23 03:34:39;;;;;;;36.50;12.73;;;;;;;;;;5041994;28;20907;-74
2023/05/23 03:37:05;;;;;;;42.67;12.75;;;;;;;;;;5031705;28;20053;-72
2023/05/23 03:39:31;;;;;;;41.58;13.27;;;;;;;;;;5050660;28;20071;-73
2023/05/23 03:41:57;;;;;;;34.15;12.75;;;;;;;;;;5031208;28;20078;-73
2023/05/23 03:44:23;;;;;;;36.25;13.00;;;;;;;;;;5032486;28;20052;-73
2023/05/23 03:46:49;;;;;;;36.90;13.30;;;;;;;;;;5058072;28;20114;-73
2023/05/23 03:49:15;;;;;;;35.30;12.77;;;;;;;;;;5049602;28;20052;-73
2023/05/23 03:51:41;;;;;;;34.85;13.23;;;;;;;;;;5034856;28;20091;-74
2023/05/23 03:54:07;;;;;;;29.35;11.88;;;;;;;;;;5036048;28;20491;-74
2023/05/23 03:56:33;;;;;;;27.55;12.43;;;;;;;;;;5045028;28;20483;-73
2023/05/23 03:59:00;;;;;;;36.58;13.35;;;;;;;;;;5055453;28;20054;-73
2023/05/23 04:01:26;;;;;;;31.58;12.38;;;;;;;;;;5047595;28;20083;-73
2023/05/23 04:03:52;;;;;;;31.98;10.73;;;;;;;;;;5050390;28;20048;-73
2023/05/23 04:06:19;;;;;;;26.92;10.93;;;;;;;;;;5049065;28;20056;-72
2023/05/23 04:08:45;;;;;;;34.75;10.85;;;;;;;;;;5053033;28;20407;-74
2023/05/23 04:11:11;;;;;;;26.63;10.57;;;;;;;;;;5048165;28;20041;-72
2023/05/23 04:13:37;;;;;;;30.00;10.75;;;;;;;;;;5067919;28;20044;-74
2023/05/23 04:16:04;;;;;;;29.02;10.23;;;;;;;;;;5049515;28;20841;-73
2023/05/23 04:18:32;;;;;;;29.50;10.18;;;;;;;;;;5049882;28;20093;-73
2023/05/23 04:20:58;;;;;;;37.10;10.80;;;;;;;;;;5035786;28;20056;-73
2023/05/23 04:23:24;;;;;;;24.80;10.23;;;;;;;;;;5050915;28;20537;-73
2023/05/23 04:25:51;;;;;;;35.72;10.90;;;;;;;;;;5052570;28;20060;-74
2023/05/23 04:28:17;;;;;;;35.83;10.88;;;;;;;;;;5048111;28;20041;-73
2023/05/23 04:30:44;;;;;;;26.98;9.40;;;;;;;;;;5055692;28;20507;-73
2023/05/23 04:33:10;;;;;;;33.55;10.80;;;;;;;;;;5051764;28;20056;-73
2023/05/23 04:35:39;;;;;;;30.60;10.38;;;;;;;;;;5052549;28;20492;-74
2023/05/23 04:38:05;;;;;;;27.90;9.32;;;;;;;;;;5052120;28;20117;-73
2023/05/23 04:40:31;;;;;;;25.63;8.02;;;;;;;;;;5048670;28;20428;-73
2023/05/23 04:42:57;;;;;;;22.45;7.55;;;;;;;;;;5054498;28;20082;-72
2023/05/23 04:45:23;;;;;;;25.27;7.78;;;;;;;;;;5049541;28;20052;-74
2023/05/23 04:47:49;;;;;;;31.40;8.13;;;;;;;;;;5052984;28;20056;-72
2023/05/23 04:50:15;;;;;;;24.95;8.65;;;;;;;;;;5033476;28;20476;-73
2023/05/23 04:52:41;;;;;;;22.10;7.40;;;;;;;;;;5051371;28;20041;-73
2023/05/23 04:55:08;;;;;;;26.60;7.00;;;;;;;;;;5048736;28;20083;-74
2023/05/23 04:57:37;;;;;;;25.42;6.93;;;;;;;;;;5052347;28;20052;-74
2023/05/23 05:00:09;;;;;;;26.75;7.60;;;;;;;;;;5051193;28;20075;-73
2023/05/23 05:02:37;;;;;;;27.85;7.22;;;;;;;;;;5060152;28;20051;-73
2023/05/23 05:05:03;;;;;;;19.25;6.68;;;;;;;;;;5049175;28;20667;-74
2023/05/23 05:07:29;;;;;;;25.35;6.53;;;;;;;;;;5046339;28;20187;-72
2023/05/23 05:09:56;;;;;;;27.75;6.45;;;;;;;;;;5050631;28;20052;-74
2023/05/23 05:12:22;;;;;;;23.30;7.05;;;;;;;;;;5052550;28;20134;-73
2023/05/23 05:14:48;;;;;;;24.30;7.90;;;;;;;;;;5057818;28;20036;-74
2023/05/23 05:17:15;;;;;;;24.40;8.55;;;;;;;;;;5046007;28;20131;-73
2023/05/23 05:19:41;;;;;;;32.30;9.48;;;;;;;;;;5056681;28;20533;-73
2023/05/23 05:22:07;;;;;;;31.05;9.23;;;;;;;;;;5052852;28;20036;-73
2023/05/23 05:24:33;;;;;;;28.75;9.70;;;;;;;;;;5036684;28;20057;-73
2023/05/23 05:27:00;;;;;;;29.15;10.48;;;;;;;;;;5038752;28;20414;-72
2023/05/23 05:29:26;;;;;;;30.52;10.52;;;;;;;;;;5046851;28;20137;-72
2023/05/23 05:31:52;;;;;;;33.63;11.52;;;;;;;;;;5037379;28;20044;-73
2023/05/23 05:34:18;;;;;;;30.67;11.93;;;;;;;;;;5036507;28;20041;-73
2023/05/23 05:36:47;;;;;;;36.85;12.80;;;;;;;;;;5054286;28;22530;-72
2023/05/23 05:39:13;;;;;;;34.35;11.73;;;;;;;;;;5052180;28;20056;-73
2023/05/23 05:41:39;;;;;;;26.27;9.50;;;;;;;;;;5054708;28;20051;-72
2023/05/23 05:44:06;;;;;;;26.55;11.05;;;;;;;;;;5050886;28;20044;-72
2023/05/23 05:46:32;;;;;;;30.10;10.98;;;;;;;;;;5047796;28;20037;-71
2023/05/23 05:48:58;;;;;;;24.08;9.75;;;;;;;;;;5048326;28;20055;-73
2023/05/23 05:51:24;;;;;;;30.65;10.48;;;;;;;;;;5050804;28;20052;-72
2023/05/23 05:53:50;;;;;;;27.67;10.50;;;;;;;;;;5055800;28;20531;-72
2023/05/23 05:56:16;;;;;;;29.17;10.43;;;;;;;;;;5035822;28;20373;-72
2023/05/23 05:58:42;;;;;;;24.15;10.05;;;;;;;;;;5040702;28;20143;-73
2023/05/23 06:01:08;;;;;;;22.83;10.00;;;;;;;;;;5035690;28;20054;-72
2023/05/23 06:03:34;;;;;;;29.35;9.30;;;;;;;;;;5052870;28;20048;-73
2023/05/23 06:06:00;;;;;;;25.58;9.80;;;;;;;;;;5053518;28;20189;-72
2023/05/23 06:08:26;;;;;;;23.67;9.20;;;;;;;;;;5048916;28;20602;-73
2023/05/23 06:10:52;;;;;;;23.05;9.02;;;;;;;;;;5056481;28;21608;-72
2023/05/23 06:13:18;;;;;;;23.35;8.80;;;;;;;;;;5030657;28;20056;-75
2023/05/23 06:15:45;;;;;;;24.23;8.32;;;;;;;;;;5057657;28;20125;-74
2023/05/23 06:18:11;;;;;;;20.65;7.93;;;;;;;;;;5040634;28;20053;-74
2023/05/23 06:20:37;;;;;;;22.30;7.82;;;;;;;;;;5040763;28;20045;-73
2023/05/23 06:23:04;;;;;;;21.40;7.20;;;;;;;;;;5036315;28;20524;-74
2023/05/23 06:25:30;;;;;;;19.20;6.55;;;;;;;;;;5055601;28;20052;-73
2023/05/23 06:27:56;;;;;;;19.60;5.75;;;;;;;;;;5044280;28;20598;-73
2023/05/23 06:30:23;;;;;;;18.27;5.50;;;;;;;;;;5054385;28;20261;-73
2023/05/23 06:32:49;;;;;;;17.17;5.47;;;;;;;;;;5050766;28;20079;-73
2023/05/23 06:35:16;;;;;;;18.40;5.68;;;;;;;;;;5059342;28;20047;-74
2023/05/23 06:37:44;;;;;;;12.98;5.70;;;;;;;;;;5057263;28;20045;-74
2023/05/23 06:40:11;;;;;;;16.63;5.50;;;;;;;;;;5059126;28;20032;-74
2023/05/23 06:42:38;;;;;;;17.60;5.60;;;;;;;;;;5042952;28;21088;-74
2023/05/23 06:45:04;;;;;;;16.85;5.57;;;;;;;;;;5058878;28;20056;-74
2023/05/23 06:47:30;;;;;;;22.38;5.97;;;;;;;;;;5058455;28;20091;-74
2023/05/23 06:49:56;;;;;;;19.73;5.97;;;;;;;;;;5054642;28;20128;-74
2023/05/23 06:52:22;;;;;;;26.05;6.03;;;;;;;;;;5053259;28;20051;-74
2023/05/23 06:54:48;;;;;;;24.77;6.72;;;;;;;;;;5054669;28;20454;-74
2023/05/23 06:57:14;;;;;;;23.30;6.05;;;;;;;;;;5050862;28;20499;-75
2023/05/23 06:59:40;;;;;;;25.30;7.35;;;;;;;;;;5064260;28;20074;-76
2023/05/23 07:02:06;;;;;;;27.33;6.20;;;;;;;;;;5054701;28;20587;-74
2023/05/23 07:04:32;;;;;;;30.30;6.05;;;;;;;;;;5056806;28;20102;-74
2023/05/23 07:06:58;;;;;;;21.20;5.25;;;;;;;;;;5048749;28;20060;-73
2023/05/23 07:09:24;;;;;;;22.88;6.20;;;;;;;;;;5039321;28;20061;-73
2023/05/23 07:11:50;;;;;;;27.38;5.85;;;;;;;;;;5057926;28;20037;-75
2023/05/23 07:14:16;;;;;;;27.98;5.70;;;;;;;;;;5048347;28;20060;-75
2023/05/23 07:16:42;;;;;;;22.90;5.40;;;;;;;;;;5056899;28;20500;-74
2023/05/23 07:19:08;;;;;;;25.00;6.05;;;;;;;;;;5059292;28;20052;-74
2023/05/23 07:21:35;;;;;;;25.35;5.68;;;;;;;;;;5054536;28;20044;-74
2023/05/23 07:24:00;;;;;;;29.45;5.85;;;;;;;;;;5048671;28;20945;-74
2023/05/23 07:26:26;;;;;;;25.15;4.78;;;;;;;;;;5054853;28;20052;-74
2023/05/23 07:28:52;;;;;;;22.10;5.40;;;;;;;;;;5035345;28;20033;-75
2023/05/23 07:31:18;;;;;;;28.80;4.88;;;;;;;;;;5040390;28;20045;-74
2023/05/23 07:33:44;;;;;;;24.27;5.65;;;;;;;;;;5054576;28;20411;-74
2023/05/23 07:36:10;;;;;;;25.13;5.45;;;;;;;;;;5053392;28;20044;-73
2023/05/23 07:38:36;;;;;;;25.38;5.32;;;;;;;;;;5056129;28;20045;-75
2023/05/23 07:41:02;;;;;;;24.85;5.63;;;;;;;;;;5059111;28;20119;-74
2023/05/23 07:43:28;;;;;;;27.17;5.70;;;;;;;;;;5050557;28;20047;-75
2023/05/23 07:45:54;;;;;;;20.95;5.85;;;;;;;;;;5060632;28;20072;-80
2023/05/23 07:48:20;;;;;;;24.20;5.25;;;;;;;;;;5033860;28;20037;-81
2023/05/23 07:50:47;;;;;;;29.38;5.25;;;;;;;;;;5059266;28;20040;-79
2023/05/23 07:53:13;;;;;;;25.58;5.53;;;;;;;;;;5057617;28;20098;-77
2023/05/23 07:55:40;;;;;;;27.33;6.35;;;;;;;;;;5061903;28;20074;-77
2023/05/23 07:58:06;;;;;;;25.55;5.32;;;;;;;;;;5055344;28;20131;-77
2023/05/23 08:00:32;;;;;;;22.27;5.18;;;;;;;;;;5038934;28;20040;-77
2023/05/23 08:02:58;;;;;;;25.60;4.80;;;;;;;;;;5063755;28;20033;-76
2023/05/23 08:05:24;;;;;;;25.05;5.07;;;;;;;;;;5036741;28;20052;-75
2023/05/23 08:07:53;;;;;;;20.10;4.50;;;;;;;;;;5049157;28;20065;-77
2023/05/23 08:10:19;;;;;;;22.58;4.50;;;;;;;;;;5056583;28;20052;-78
2023/05/23 08:12:45;;;;;;;20.08;4.70;;;;;;;;;;5058811;28;20056;-79
2023/05/23 08:15:11;;;;;;;21.30;4.68;;;;;;;;;;5043125;28;22024;-82
2023/05/23 08:17:37;;;;;;;25.88;4.95;;;;;;;;;;5052886;28;20092;-76
2023/05/23 08:20:04;;;;;;;17.67;4.72;;;;;;;;;;5034439;28;20511;-80
2023/05/23 08:22:30;;;;;;;21.05;5.05;;;;;;;;;;5058256;28;20080;-83
2023/05/23 08:24:56;;;;;;;20.83;4.47;;;;;;;;;;5058848;28;20415;-79
2023/05/23 08:27:22;;;;;;;26.13;5.28;;;;;;;;;;5058415;28;20044;-75
2023/05/23 08:29:48;;;;;;;32.22;5.82;;;;;;;;;;5058716;28;20045;-76
2023/05/23 08:32:14;;;;;;;22.15;4.30;;;;;;;;;;5055341;28;20125;-78
2023/05/23 08:34:41;;;;;;;26.95;5.55;;;;;;;;;;5057114;28;20076;-76
2023/05/23 08:37:07;;;;;;;21.83;5.07;;;;;;;;;;5056423;28;20052;-77
2023/05/23 08:39:33;;;;;;;22.48;5.13;;;;;;;;;;5042008;28;20037;-81
2023/05/23 08:41:59;;;;;;;21.27;4.85;;;;;;;;;;5042666;28;20048;-75
2023/05/23 08:44:25;;;;;;;23.10;5.20;;;;;;;;;;5045892;28;20037;-77
2023/05/23 08:46:52;;;;;;;22.35;5.47;;;;;;;;;;5046576;28;20048;-77
2023/05/23 08:49:19;;;;;;;24.08;6.20;;;;;;;;;;5038699;28;20048;-82
2023/05/23 08:51:46;;;;;;;25.20;5.22;;;;;;;;;;5063564;28;20079;-76
2023/05/23 08:54:12;;;;;;;25.65;4.97;;;;;;;;;;5046061;28;20036;-76
2023/05/23 08:56:39;;;;;;;22.20;4.93;;;;;;;;;;5061240;28;20040;-76
2023/05/23 08:59:05;;;;;;;23.35;4.65;;;;;;;;;;5048859;28;20943;-79
2023/05/23 09:01:32;;;;;;;23.55;5.05;;;;;;;;;;5052568;28;20509;-77
2023/05/23 09:04:03;;;;;;;19.88;4.45;;;;;;;;;;5062383;28;20103;-76
2023/05/23 09:06:29;;;;;;;22.95;4.47;;;;;;;;;;5058124;28;20553;-80
2023/05/23 09:08:56;;;;;;;26.23;5.63;;;;;;;;;;5055904;28;20091;-80
2023/05/23 09:11:23;;;;;;;20.02;4.30;;;;;;;;;;5063175;28;20080;-77
2023/05/23 09:13:49;;;;;;;27.83;5.30;;;;;;;;;;5043517;28;20093;-76
2023/05/23 09:16:16;;;;;;;22.45;4.45;;;;;;;;;;5062279;28;20408;-76
2023/05/23 09:18:43;;;;;;;20.38;5.03;;;;;;;;;;5057629;28;20147;-76
2023/05/23 09:21:09;;;;;;;21.20;5.00;;;;;;;;;;5045248;28;20049;-76
2023/05/23 09:23:36;;;;;;;21.88;4.97;;;;;;;;;;5041700;28;20394;-77
2023/05/23 09:26:06;;;;;;;20.30;5.25;;;;;;;;;;5044224;28;20091;-76
2023/05/23 09:28:32;;;;;;;16.38;4.53;;;;;;;;;;5046523;28;20052;-74
2023/05/23 09:30:59;;;;;;;18.25;4.32;;;;;;;;;;5057603;28;20045;-74
2023/05/23 09:33:29;;;;;;;17.70;4.30;;;;;;;;;;5051646;28;20068;-75
2023/05/23 09:35:55;;;;;;;20.02;4.50;;;;;;;;;;5035973;28;20041;-75
2023/05/23 09:38:22;;;;;;;22.70;4.97;;;;;;;;;;5060372;28;20105;-75
2023/05/23 09:40:48;;;;;;;25.30;4.80;;;;;;;;;;5060098;28;20103;-78
2023/05/23 09:43:17;;;;;;;20.83;4.50;;;;;;;;;;5060788;28;20056;-77
2023/05/23 09:45:43;;;;;;;20.35;4.50;;;;;;;;;;5061129;28;20439;-81
2023/05/23 09:48:12;;;;;;;19.42;4.45;;;;;;;;;;5060677;28;20059;-77
2023/05/23 09:50:39;;;;;;;21.42;4.40;;;;;;;;;;5060918;28;20106;-79
2023/05/23 09:53:04;;;;;;;21.92;4.43;;;;;;;;;;5060159;28;20036;-80
2023/05/23 09:55:30;;;;;;;19.58;3.85;;;;;;;;;;5055299;28;20044;-77
2023/05/23 09:57:58;;;;;;;19.00;4.28;;;;;;;;;;5041366;28;20044;-77
2023/05/23 10:00:24;;;;;;;22.55;4.88;;;;;;;;;;5061391;28;20047;-80
2023/05/23 10:02:54;;;;;;;20.35;4.10;;;;;;;;;;5060648;28;20047;-77
2023/05/23 10:05:32;;;;;;;24.17;4.68;;;;;;;;;;5060826;28;20052;-76
2023/05/23 10:08:06;;;;;;;20.63;4.32;;;;;;;;;;5049492;28;20060;-79
2023/05/23 10:10:32;;;;;;;18.23;4.55;;;;;;;;;;5059885;28;20109;-77
2023/05/23 10:13:02;;;;;;;19.95;4.57;;;;;;;;;;5064760;28;20177;-80
2023/05/23 10:15:29;;;;;;;18.83;3.88;;;;;;;;;;5049696;28;20530;-82
2023/05/23 10:18:10;;;;;;;19.42;4.07;;;;;;;;;;5054617;28;20048;-82
2023/05/23 10:20:38;;;;;;;17.20;4.10;;;;;;;;;;5044119;28;20040;-78
2023/05/23 10:23:05;;;;;;;17.10;3.92;;;;;;;;;;5059099;28;20040;-75
2023/05/23 10:25:31;;;;;;;15.48;3.72;;;;;;;;;;5061392;28;20052;-77
2023/05/23 10:27:58;;;;;;;15.93;4.57;;;;;;;;;;5056527;28;20174;-81
2023/05/23 10:30:25;;;;;;;16.10;3.85;;;;;;;;;;5059853;28;20128;-76
2023/05/23 10:32:52;;;;;;;24.00;3.88;;;;;;;;;;5051642;28;20045;-80
2023/05/23 10:35:32;;;;;;;17.83;4.00;;;;;;;;;;5054483;28;20051;-75
2023/05/23 10:38:11;;;;;;;19.88;4.22;;;;;;;;;;5044449;28;20049;-77
2023/05/23 10:40:46;;;;;;;22.10;4.50;;;;;;;;;;5059167;28;20404;-76
2023/05/23 10:43:22;;;;;;;20.65;4.13;;;;;;;;;;5054271;28;20036;-78
2023/05/23 10:45:50;;;;;;;18.48;3.92;;;;;;;;;;5053477;28;20898;-77
2023/05/23 10:48:37;;;;;;;19.30;3.95;;;;;;;;;;5057697;28;20111;-78
2023/05/23 10:51:03;;;;;;;17.90;3.63;;;;;;;;;;5053776;28;20509;-77
2023/05/23 10:53:30;;;;;;;15.93;3.67;;;;;;;;;;5055023;28;20041;-76
2023/05/23 10:55:57;;;;;;;18.98;4.15;;;;;;;;;;5061922;28;21046;-83
2023/05/23 10:58:23;;;;;;;13.05;3.60;;;;;;;;;;5059704;28;20040;-76
2023/05/23 11:00:55;;;;;;;18.70;3.67;;;;;;;;;;5060480;28;20606;-76
2023/05/23 11:03:35;;;;;;;14.98;3.60;;;;;;;;;;5040005;28;20044;-79
2023/05/23 11:06:05;;;;;;;19.33;3.90;;;;;;;;;;5040427;28;20460;-76
2023/05/23 11:08:39;;;;;;;20.52;4.03;;;;;;;;;;5056883;28;20068;-80
2023/05/23 11:11:05;;;;;;;19.63;3.70;;;;;;;;;;5058872;28;20084;-78
2023/05/23 11:13:50;;;;;;;17.10;3.90;;;;;;;;;;5059806;28;20602;-80
2023/05/23 11:16:26;;;;;;;17.15;3.63;;;;;;;;;;5042570;28;20679;-76
2023/05/23 11:18:52;;;;;;;17.02;3.47;;;;;;;;;;5042415;28;20048;-77
2023/05/23 11:21:19;;;;;;;19.77;3.53;;;;;;;;;;5061387;28;20101;-81
2023/05/23 11:23:45;;;;;;;18.50;3.88;;;;;;;;;;5050706;28;20049;-79
2023/05/23 11:26:30;;;;;;;21.35;3.97;;;;;;;;;;5058135;28;20052;-75
2023/05/23 11:28:57;;;;;;;15.75;3.53;;;;;;;;;;5058057;28;20787;-76
2023/05/23 11:31:23;;;;;;;13.57;3.30;;;;;;;;;;5059034;28;20812;-77
2023/05/23 11:33:53;;;;;;;18.17;3.65;;;;;;;;;;5060409;28;20884;-75
2023/05/23 11:36:21;;;;;;;15.50;3.17;;;;;;;;;;5056734;28;20233;-76
2023/05/23 11:38:47;;;;;;;21.55;3.55;;;;;;;;;;5061692;28;20495;-78
2023/05/23 11:41:13;;;;;;;18.35;3.63;;;;;;;;;;5058565;28;20506;-81
2023/05/23 11:43:49;;;;;;;17.40;3.85;;;;;;;;;;5038269;28;20140;-80
2023/05/23 11:46:15;;;;;;;18.25;4.40;;;;;;;;;;5049006;28;20049;-79
2023/05/23 11:48:47;;;;;;;22.50;4.00;;;;;;;;;;5055466;28;20075;-75
2023/05/23 11:51:17;;;;;;;18.05;4.32;;;;;;;;;;5056666;28;20052;-78
2023/05/23 11:53:43;;;;;;;21.02;3.88;;;;;;;;;;5058077;28;20521;-77
2023/05/23 11:56:09;;;;;;;16.15;3.33;;;;;;;;;;5047527;28;20067;-75
2023/05/23 11:58:36;;;;;;;19.75;4.03;;;;;;;;;;5042954;28;20033;-76
2023/05/23 12:01:02;;;;;;;15.48;3.55;;;;;;;;;;5041600;28;20158;-76
2023/05/23 12:03:28;;;;;;;17.23;3.65;;;;;;;;;;5041606;28;20067;-75
2023/05/23 12:05:55;;;;;;;12.52;3.55;;;;;;;;;;5059818;28;20044;-76
2023/05/23 12:08:21;;;;;;;14.65;3.45;;;;;;;;;;5046267;28;20051;-75
2023/05/23 12:10:57;;;;;;;18.58;3.92;;;;;;;;;;5045394;28;20135;-76
2023/05/23 12:13:24;;;;;;;15.48;4.00;;;;;;;;;;5043365;28;20048;-76
2023/05/23 12:15:53;;;;;;;13.02;3.28;;;;;;;;;;5047657;28;20064;-77
2023/05/23 12:18:19;;;;;;;14.45;3.10;;;;;;;;;;5040466;28;20615;-75
2023/05/23 12:20:48;;;;;;;16.02;3.38;;;;;;;;;;5038551;28;20420;-79
2023/05/23 12:23:23;;;;;;;21.60;3.63;;;;;;;;;;5060548;28;20044;-78
2023/05/23 12:25:53;;;;;;;16.38;3.72;;;;;;;;;;5050978;28;20535;-81
2023/05/23 12:28:38;;;;;;;13.00;3.28;;;;;;;;;;5060218;28;20044;-78
2023/05/23 12:31:08;;;;;;;17.08;3.85;;;;;;;;;;5032017;28;21546;-78
2023/05/23 12:33:37;;;;;;;14.35;3.30;;;;;;;;;;5060660;28;20048;-83
2023/05/23 12:36:03;;;;;;;15.05;2.90;;;;;;;;;;5065842;28;20045;-86
2023/05/23 12:38:29;;;;;;;16.83;3.33;;;;;;;;;;5052847;28;20140;-77
2023/05/23 12:41:07;;;;;;;14.05;3.22;;;;;;;;;;5052883;28;20127;-79
2023/05/23 12:43:37;;;;;;;14.00;3.78;;;;;;;;;;5050772;28;20523;-79
2023/05/23 12:46:03;;;;;;;13.70;2.92;;;;;;;;;;5038060;28;20036;-84
2023/05/23 12:48:29;;;;;;;18.45;3.75;;;;;;;;;;5055140;28;20103;-74
2023/05/23 12:50:55;;;;;;;15.98;3.60;;;;;;;;;;5052958;28;20032;-75
2023/05/23 12:53:21;;;;;;;12.75;3.08;;;;;;;;;;5037433;28;20718;-80
2023/05/23 12:55:47;;;;;;;12.52;3.08;;;;;;;;;;5038033;28;20529;-75
2023/05/23 12:58:13;;;;;;;14.57;3.60;;;;;;;;;;5043027;28;20756;-78
2023/05/23 13:00:39;;;;;;;18.52;3.03;;;;;;;;;;5066617;28;20043;-84
2023/05/23 13:03:05;;;;;;;20.38;3.80;;;;;;;;;;5065502;28;20041;-83
2023/05/23 13:05:31;;;;;;;20.08;4.32;;;;;;;;;;5058919;28;20051;-81
2023/05/23 13:07:58;;;;;;;19.08;3.80;;;;;;;;;;5055431;28;20056;-82
2023/05/23 13:10:24;;;;;;;17.17;2.95;;;;;;;;;;5040056;28;20049;-84
2023/05/23 13:12:50;;;;;;;15.05;3.15;;;;;;;;;;5035685;28;20044;-88
2023/05/23 13:15:16;;;;;;;16.23;3.10;;;;;;;;;;5043639;28;20079;-89
2023/05/23 13:17:42;;;;;;;15.13;2.78;;;;;;;;;;5041365;28;20052;-87
2023/05/23 13:20:10;;;;;;;14.52;2.65;;;;;;;;;;5062153;28;20049;-87
2023/05/23 13:22:36;;;;;;;16.80;3.05;;;;;;;;;;5039182;28;20537;-82
2023/05/23 13:25:02;;;;;;;15.98;3.03;;;;;;;;;;5041317;28;20074;-77
2023/05/23 13:27:28;;;;;;;19.27;3.42;;;;;;;;;;5057917;28;20044;-84
2023/05/23 13:29:55;;;;;;;14.90;2.85;;;;;;;;;;5064006;28;20055;-80
2023/05/23 13:32:21;;;;;;;17.90;3.45;;;;;;;;;;5063487;28;20098;-87
2023/05/23 13:34:47;;;;;;;12.63;2.80;;;;;;;;;;5062968;28;20041;-87
2023/05/23 13:37:14;;;;;;;12.73;2.80;;;;;;;;;;5066216;28;20070;-79
2023/05/23 13:39:40;;;;;;;16.73;2.95;;;;;;;;;;5053595;28;20089;-79
2023/05/23 13:42:06;;;;;;;13.88;2.80;;;;;;;;;;5067984;28;20522;-87
2023/05/23 13:44:32;;;;;;;13.35;3.08;;;;;;;;;;5058426;28;20428;-86
2023/05/23 13:47:08;;;;;;;15.82;2.88;;;;;;;;;;5042471;28;20573;-86
2023/05/23 13:49:35;;;;;;;11.35;2.78;;;;;;;;;;5033529;28;20045;-81
2023/05/23 13:52:01;;;;;;;11.23;2.58;;;;;;;;;;5062250;28;21535;-83
2023/05/23 13:54:27;;;;;;;10.68;2.58;;;;;;;;;;5048530;28;20123;-82
2023/05/23 13:56:53;;;;;;;11.45;2.75;;;;;;;;;;5058491;28;20626;-87
2023/05/23 13:59:20;;;;;;;16.17;2.63;;;;;;;;;;5049825;28;20040;-79
2023/05/23 14:01:46;;;;;;;14.27;3.17;;;;;;;;;;5067589;28;20144;-77
2023/05/23 14:04:12;;;;;;;16.75;3.65;;;;;;;;;;5054987;28;20044;-78
2023/05/23 14:06:38;;;;;;;14.02;2.88;;;;;;;;;;5048995;28;20494;-88
2023/05/23 14:09:05;;;;;;;13.60;3.15;;;;;;;;;;5065424;28;20074;-78
2023/05/23 14:11:31;;;;;;;14.40;3.00;;;;;;;;;;5075097;28;20048;-85
2023/05/23 14:13:57;;;;;;;16.88;3.38;;;;;;;;;;5038132;28;20051;-88
2023/05/23 14:16:23;;;;;;;13.23;2.88;;;;;;;;;;5050461;28;20041;-83
2023/05/23 14:18:49;;;;;;;17.60;3.63;;;;;;;;;;5067675;28;20151;-81
2023/05/23 14:21:15;;;;;;;23.60;4.10;;;;;;;;;;5056109;28;20811;-80
2023/05/23 14:23:41;;;;;;;18.60;4.07;;;;;;;;;;5066363;28;20049;-78
2023/05/23 14:26:07;;;;;;;16.98;3.60;;;;;;;;;;5073054;28;20062;-92